createdAt,value
2022-09-14T00:01:45.500Z,43.97
2022-09-14T00:04:16.052Z,48.07
2022-09-14T00:06:45.655Z,47.93
2022-09-14T00:09:17.249Z,52.07
2022-09-14T00:11:46.186Z,46.47
2022-09-14T00:14:19.594Z,44.47
2022-09-14T00:16:48.582Z,45.27
2022-09-14T00:19:20.166Z,40.70
2022-09-14T00:21:52.624Z,45.60
2022-09-14T00:24:22.309Z,46.03
2022-09-14T00:26:51.440Z,48.93
2022-09-14T00:29:21.512Z,47.10
2022-09-14T00:31:50.357Z,46.93
2022-09-14T00:34:19.236Z,48.33
2022-09-14T00:36:49.720Z,49.13
2022-09-14T00:39:20.349Z,46.77
2022-09-14T00:41:50.290Z,51.30
2022-09-14T00:45:00.605Z,46.73
2022-09-14T00:47:31.781Z,49.07
2022-09-14T00:50:03.344Z,44.40
2022-09-14T00:52:34.959Z,50.77
2022-09-14T00:55:06.893Z,47.73
2022-09-14T00:57:38.654Z,48.73
2022-09-14T01:00:12.224Z,51.33
2022-09-14T01:02:41.023Z,48.97
2022-09-14T01:05:11.787Z,47.73
2022-09-14T01:07:53.977Z,46.67
2022-09-14T01:10:35.564Z,49.17
2022-09-14T01:13:18.186Z,50.63
2022-09-14T01:15:56.947Z,49.63
2022-09-14T01:18:29.622Z,52.17
2022-09-14T01:21:02.951Z,57.23
2022-09-14T01:23:38.950Z,50.53
2022-09-14T01:26:34.386Z,53.83
2022-09-14T01:29:10.233Z,51.37
2022-09-14T01:31:47.183Z,53.57
2022-09-14T01:34:20.528Z,50.63
2022-09-14T01:36:52.372Z,51.23
2022-09-14T01:39:23.497Z,49.47
2022-09-14T01:41:53.431Z,56.77
2022-09-14T01:44:27.394Z,51.60
2022-09-14T01:47:00.439Z,50.13
2022-09-14T01:49:33.707Z,51.17
2022-09-14T01:52:06.312Z,48.07
2022-09-14T01:54:38.897Z,45.37
2022-09-14T01:57:12.654Z,50.90
2022-09-14T01:59:45.750Z,49.87
2022-09-14T02:02:18.024Z,47.33
2022-09-14T02:04:53.465Z,51.23
2022-09-14T02:07:22.118Z,46.67
2022-09-14T02:09:53.179Z,45.43
2022-09-14T02:12:22.636Z,48.17
2022-09-14T02:14:53.733Z,45.00
2022-09-14T02:17:23.169Z,47.77
2022-09-14T02:19:56.609Z,46.47
2022-09-14T02:22:27.153Z,52.43
2022-09-14T02:24:55.998Z,48.37
2022-09-14T02:27:25.496Z,45.97
2022-09-14T02:29:55.526Z,45.90
2022-09-14T02:32:31.625Z,43.97
2022-09-14T02:35:08.982Z,43.50
2022-09-14T02:37:45.282Z,40.40
2022-09-14T02:40:23.164Z,43.67
2022-09-14T02:43:00.456Z,50.27
2022-09-14T02:45:38.859Z,54.37
2022-09-14T02:48:15.803Z,44.47
2022-09-14T02:50:50.800Z,48.77
2022-09-14T02:53:25.666Z,42.10
2022-09-14T02:55:59.715Z,42.60
2022-09-14T02:58:36.488Z,47.83
2022-09-14T03:01:08.581Z,46.70
2022-09-14T03:03:37.736Z,45.17
2022-09-14T03:06:06.758Z,44.87
2022-09-14T03:08:35.688Z,44.67
2022-09-14T03:11:04.491Z,43.57
2022-09-14T03:13:34.590Z,39.67
2022-09-14T03:16:08.329Z,41.83
2022-09-14T03:18:38.166Z,39.77
2022-09-14T03:21:08.207Z,43.33
2022-09-14T03:23:38.533Z,39.67
2022-09-14T03:26:11.362Z,38.07
2022-09-14T03:28:40.893Z,35.63
2022-09-14T03:31:13.136Z,32.13
2022-09-14T03:33:42.166Z,33.80
2022-09-14T03:36:12.511Z,34.70
2022-09-14T03:38:44.932Z,32.33
2022-09-14T03:41:14.437Z,30.07
2022-09-14T03:43:44.369Z,27.23
2022-09-14T03:46:16.386Z,32.47
2022-09-14T03:48:45.772Z,36.87
2022-09-14T03:51:15.814Z,33.43
2022-09-14T03:53:45.846Z,31.57
2022-09-14T03:56:17.022Z,28.73
2022-09-14T03:58:47.275Z,32.47
2022-09-14T04:01:19.197Z,31.43
2022-09-14T04:03:48.468Z,27.67
2022-09-14T04:06:17.958Z,33.87
2022-09-14T04:08:47.934Z,24.30
2022-09-14T04:11:18.536Z,26.60
2022-09-14T04:13:47.685Z,24.87
2022-09-14T04:16:20.559Z,30.20
2022-09-14T04:18:49.710Z,22.33
2022-09-14T04:21:21.065Z,26.97
2022-09-14T04:24:13.963Z,21.63
2022-09-14T04:26:38.690Z,21.50
2022-09-14T04:29:07.560Z,22.90
2022-09-14T04:31:37.749Z,26.10
2022-09-14T04:34:07.112Z,22.07
2022-09-14T04:36:35.810Z,20.03
2022-09-14T04:39:05.436Z,19.63
2022-09-14T04:41:34.708Z,22.87
2022-09-14T04:44:03.628Z,22.50
2022-09-14T04:46:35.084Z,19.37
2022-09-14T04:49:06.004Z,21.77
2022-09-14T04:51:36.076Z,20.30
2022-09-14T04:54:06.845Z,16.03
2022-09-14T04:56:37.450Z,20.40
2022-09-14T04:59:07.030Z,17.87
2022-09-14T05:01:37.844Z,20.80
2022-09-14T05:04:09.057Z,17.37
2022-09-14T05:06:40.111Z,15.13
2022-09-14T05:09:13.182Z,18.60
2022-09-14T05:11:42.806Z,14.17
2022-09-14T05:14:13.324Z,14.73
2022-09-14T05:16:43.513Z,16.07
2022-09-14T05:19:15.684Z,12.57
2022-09-14T05:21:44.626Z,22.57
2022-09-14T05:24:15.128Z,14.87
2022-09-14T05:26:45.205Z,14.03
2022-09-14T05:29:15.067Z,14.13
2022-09-14T05:31:43.861Z,12.97
2022-09-14T05:34:14.138Z,12.67
2022-09-14T05:36:42.935Z,18.90
2022-09-14T05:39:11.642Z,13.33
2022-09-14T05:41:40.350Z,9.10
2022-09-14T05:44:08.788Z,13.87
2022-09-14T05:46:37.306Z,9.57
2022-09-14T05:49:05.931Z,13.60
2022-09-14T05:51:35.825Z,15.40
2022-09-14T05:54:09.329Z,10.13
2022-09-14T05:56:37.963Z,10.93
2022-09-14T05:59:06.447Z,8.33
2022-09-14T06:01:35.075Z,13.30
2022-09-14T06:04:04.336Z,7.97
2022-09-14T06:06:34.951Z,8.43
2022-09-14T06:09:03.917Z,6.70
2022-09-14T06:11:36.177Z,6.00
2022-09-14T06:14:05.370Z,8.03
2022-09-14T06:16:34.305Z,12.13
2022-09-14T06:19:03.144Z,6.37
2022-09-14T06:21:34.247Z,7.30
2022-09-14T06:24:04.484Z,8.70
2022-09-14T06:26:33.341Z,8.00
2022-09-14T06:29:01.813Z,11.10
2022-09-14T06:31:30.252Z,6.40
2022-09-14T06:33:58.846Z,5.23
2022-09-14T06:36:29.376Z,10.30
2022-09-14T06:39:00.105Z,8.63
2022-09-14T06:41:32.561Z,6.70
2022-09-14T06:44:02.580Z,6.27
2022-09-14T06:46:32.534Z,10.60
2022-09-14T06:49:08.114Z,5.40
2022-09-14T06:51:38.157Z,7.47
2022-09-14T06:54:07.611Z,5.80
2022-09-14T06:56:38.894Z,8.33
2022-09-14T06:59:09.162Z,7.33
2022-09-14T07:01:38.161Z,8.53
2022-09-14T07:04:07.050Z,6.13
2022-09-14T07:06:42.505Z,5.37
2022-09-14T07:09:11.740Z,9.17
2022-09-14T07:11:42.140Z,7.90
2022-09-14T07:14:11.540Z,5.97
2022-09-14T07:16:41.359Z,9.13
2022-09-14T07:19:12.999Z,5.73
2022-09-14T07:21:42.066Z,7.27
2022-09-14T07:24:12.830Z,7.73
2022-09-14T07:26:43.268Z,7.00
2022-09-14T07:29:14.335Z,4.77
2022-09-14T07:31:44.230Z,8.20
2022-09-14T07:34:13.485Z,5.00
2022-09-14T07:36:42.805Z,5.97
2022-09-14T07:39:13.467Z,3.80
2022-09-14T07:41:44.350Z,8.03
2022-09-14T07:44:16.938Z,6.00
2022-09-14T07:46:46.601Z,6.20
2022-09-14T07:49:16.054Z,7.10
2022-09-14T07:51:44.986Z,5.93
2022-09-14T07:54:16.789Z,9.63
2022-09-14T07:56:47.229Z,5.33
2022-09-14T07:59:36.232Z,7.43
2022-09-14T08:02:07.725Z,6.83
2022-09-14T08:04:37.679Z,7.20
2022-09-14T08:07:06.394Z,3.87
2022-09-14T08:09:35.418Z,8.20
2022-09-14T08:12:06.571Z,5.23
2022-09-14T08:14:35.306Z,5.27
2022-09-14T08:17:04.081Z,6.67
2022-09-14T08:19:32.622Z,5.07
2022-09-14T08:22:01.112Z,8.50
2022-09-14T08:24:29.587Z,4.50
2022-09-14T08:26:58.360Z,5.93
2022-09-14T08:29:28.099Z,6.77
2022-09-14T08:31:57.029Z,7.23
2022-09-14T08:34:25.862Z,4.67
2022-09-14T08:36:54.575Z,7.38
2022-09-14T08:39:23.207Z,5.73
2022-09-14T08:41:56.038Z,8.07
2022-09-14T08:44:42.231Z,6.05
2022-09-14T08:47:14.805Z,3.38
2022-09-14T08:49:48.406Z,6.30
2022-09-14T08:52:25.270Z,7.47
2022-09-14T08:54:56.870Z,5.83
2022-09-14T08:57:33.216Z,5.53
2022-09-14T09:00:11.067Z,6.45
2022-09-14T09:03:06.848Z,4.45
2022-09-14T09:05:40.656Z,4.32
2022-09-14T09:08:19.107Z,5.55
2022-09-14T09:10:49.386Z,3.80
2022-09-14T09:13:21.960Z,5.50
2022-09-14T09:15:55.163Z,4.15
2022-09-14T09:18:33.840Z,6.82
2022-09-14T09:21:06.897Z,3.88
2022-09-14T09:23:36.470Z,4.40
2022-09-14T09:26:09.296Z,2.90
2022-09-14T09:28:43.785Z,3.65
2022-09-14T09:31:16.235Z,6.50
2022-09-14T09:34:08.320Z,4.15
2022-09-14T09:36:40.572Z,8.45
2022-09-14T09:39:09.433Z,6.10
2022-09-14T09:41:45.526Z,4.80
2022-09-14T09:44:14.790Z,3.67
2022-09-14T09:46:51.502Z,3.97
2022-09-14T09:49:23.348Z,2.65
2022-09-14T09:51:53.538Z,5.35
2022-09-14T09:54:31.109Z,4.18
2022-09-14T09:57:02.567Z,12.00
2022-09-14T09:59:35.997Z,5.35
2022-09-14T10:02:30.290Z,7.43
2022-09-14T10:05:04.178Z,6.00
2022-09-14T10:07:35.744Z,5.03
2022-09-14T10:10:08.246Z,3.92
2022-09-14T10:12:39.670Z,4.95
2022-09-14T10:15:17.884Z,5.20
2022-09-14T10:18:08.063Z,4.93
2022-09-14T10:20:38.276Z,5.18
2022-09-14T10:23:23.621Z,18.35
2022-09-14T10:25:54.971Z,3.25
2022-09-14T10:28:28.397Z,3.88
2022-09-14T10:31:02.218Z,5.82
2022-09-14T10:33:33.116Z,4.40
2022-09-14T10:36:11.727Z,3.03
2022-09-14T10:38:44.779Z,6.70
2022-09-14T10:41:26.292Z,7.05
2022-09-14T10:44:19.466Z,8.65
2022-09-14T10:47:04.759Z,2.92
2022-09-14T10:49:45.095Z,5.05
2022-09-14T10:52:21.637Z,3.75
2022-09-14T10:55:08.977Z,6.80
2022-09-14T10:57:49.263Z,5.60
2022-09-14T11:00:21.350Z,3.22
2022-09-14T11:03:12.423Z,5.38
2022-09-14T11:05:47.715Z,8.38
2022-09-14T11:08:25.676Z,5.78
2022-09-14T11:11:11.236Z,3.10
2022-09-14T11:13:55.130Z,4.93
2022-09-14T11:16:48.670Z,3.85
2022-09-14T11:19:24.610Z,3.75
2022-09-14T11:22:03.446Z,5.63
2022-09-14T11:24:39.284Z,4.70
2022-09-14T11:27:15.647Z,2.97
2022-09-14T11:29:48.363Z,6.70
2022-09-14T11:32:22.352Z,5.32
2022-09-14T11:34:59.043Z,3.90
2022-09-14T11:37:34.674Z,2.88
2022-09-14T11:40:16.359Z,5.15
2022-09-14T11:42:50.500Z,2.65
2022-09-14T11:45:24.516Z,3.90
2022-09-14T11:48:01.246Z,4.68
2022-09-14T11:50:32.805Z,7.55
2022-09-14T11:53:11.231Z,5.65
2022-09-14T11:55:44.022Z,4.00
2022-09-14T11:58:20.858Z,4.07
2022-09-14T12:01:26.513Z,4.97
2022-09-14T12:04:07.468Z,2.92
2022-09-14T12:07:00.158Z,4.43
2022-09-14T12:09:55.438Z,3.25
2022-09-14T12:12:39.091Z,2.67
2022-09-14T12:15:22.810Z,2.75
2022-09-14T12:17:53.063Z,3.67
2022-09-14T12:20:43.360Z,3.55
2022-09-14T12:23:30.540Z,4.80
2022-09-14T12:26:38.076Z,2.65
2022-09-14T12:29:32.244Z,2.65
2022-09-14T12:32:07.239Z,2.60
2022-09-14T12:34:36.396Z,5.00
2022-09-14T12:37:33.093Z,2.70
2022-09-14T12:40:39.852Z,5.20
2022-09-14T12:43:58.244Z,2.40
2022-09-14T12:46:49.490Z,4.13
2022-09-14T12:49:46.354Z,3.67
2022-09-14T12:52:33.573Z,5.05
2022-09-14T12:55:16.928Z,2.80
2022-09-14T12:57:52.753Z,3.28
2022-09-14T13:00:22.591Z,3.65
2022-09-14T13:03:19.182Z,2.58
2022-09-14T13:05:47.979Z,7.45
2022-09-14T13:08:24.312Z,3.03
2022-09-14T13:10:54.145Z,5.18
2022-09-14T13:13:25.749Z,6.03
2022-09-14T13:15:57.823Z,3.60
2022-09-14T13:18:31.942Z,3.22
2022-09-14T13:21:02.639Z,2.28
2022-09-14T13:23:37.877Z,2.75
2022-09-14T13:26:14.532Z,2.85
2022-09-14T13:28:45.950Z,4.35
2022-09-14T13:31:18.825Z,4.93
2022-09-14T13:34:00.828Z,4.95
2022-09-14T13:36:31.528Z,4.90
2022-09-14T13:39:02.137Z,5.03
2022-09-14T13:41:32.530Z,4.80
2022-09-14T13:44:01.795Z,3.22
2022-09-14T13:46:30.707Z,5.70
2022-09-14T13:49:00.907Z,2.88
2022-09-14T13:51:31.444Z,8.50
2022-09-14T13:54:19.647Z,4.25
2022-09-14T13:57:08.382Z,5.28
2022-09-14T13:59:37.085Z,2.90
2022-09-14T14:02:14.130Z,4.50
2022-09-14T14:04:49.867Z,6.13
2022-09-14T14:07:22.462Z,3.17
2022-09-14T14:09:54.440Z,3.75
2022-09-14T14:12:26.908Z,4.55
2022-09-14T14:15:00.529Z,3.65
2022-09-14T14:17:36.895Z,5.32
2022-09-14T14:20:36.463Z,3.38
2022-09-14T14:23:26.300Z,10.00
2022-09-14T14:26:07.537Z,5.40
2022-09-14T14:28:36.691Z,5.97
2022-09-14T14:31:09.088Z,3.65
2022-09-14T14:33:46.410Z,2.90
2022-09-14T14:36:18.850Z,5.30
2022-09-14T14:38:48.119Z,7.47
2022-09-14T14:41:18.515Z,4.72
2022-09-14T14:43:47.702Z,8.15
2022-09-14T14:46:16.827Z,2.53
2022-09-14T14:48:45.518Z,5.18
2022-09-14T14:51:15.484Z,5.50
2022-09-14T14:53:46.061Z,4.15
2022-09-14T14:56:15.474Z,3.35
2022-09-14T14:58:45.807Z,7.63
2022-09-14T15:01:16.467Z,3.95
2022-09-14T15:03:45.464Z,9.30
2022-09-14T15:06:16.190Z,3.08
2022-09-14T15:08:46.933Z,6.50
2022-09-14T15:11:17.971Z,3.35
2022-09-14T15:13:46.805Z,3.75
2022-09-14T15:16:16.264Z,6.10
2022-09-14T15:18:44.976Z,4.05
2022-09-14T15:21:13.714Z,10.07
2022-09-14T15:23:42.552Z,4.13
2022-09-14T15:26:12.980Z,6.60
2022-09-14T15:28:41.768Z,2.33
2022-09-14T15:31:10.265Z,4.97
2022-09-14T15:33:39.130Z,6.07
2022-09-14T15:36:08.202Z,4.70
2022-09-14T15:38:36.932Z,5.85
2022-09-14T15:41:06.285Z,5.00
2022-09-14T15:43:36.739Z,6.45
2022-09-14T15:46:05.770Z,9.10
2022-09-14T15:48:34.465Z,4.70
2022-09-14T15:51:11.770Z,5.45
2022-09-14T15:53:40.771Z,3.30
2022-09-14T15:56:11.183Z,7.40
2022-09-14T15:58:45.910Z,2.42
2022-09-14T16:01:18.671Z,3.45
2022-09-14T16:03:47.691Z,3.08
2022-09-14T16:06:16.433Z,3.45
2022-09-14T16:08:45.308Z,3.60
2022-09-14T16:11:13.954Z,3.53
2022-09-14T16:13:44.250Z,7.47
2022-09-14T16:16:14.734Z,7.60
2022-09-14T16:18:43.570Z,4.55
2022-09-14T16:21:16.097Z,4.78
2022-09-14T16:23:47.455Z,3.22
2022-09-14T16:26:18.219Z,4.65
2022-09-14T16:28:50.378Z,5.47
2022-09-14T16:31:22.282Z,7.60
2022-09-14T16:33:53.211Z,5.18
2022-09-14T16:36:24.356Z,8.02
2022-09-14T16:38:53.702Z,2.97
2022-09-14T16:41:22.623Z,6.65
2022-09-14T16:43:57.614Z,4.82
2022-09-14T16:46:27.605Z,3.42
2022-09-14T16:48:58.603Z,4.90
2022-09-14T16:51:29.334Z,6.57
2022-09-14T16:53:59.414Z,3.65
2022-09-14T16:56:30.025Z,7.80
2022-09-14T16:59:01.231Z,5.93
2022-09-14T17:01:32.876Z,5.75
2022-09-14T17:04:03.717Z,5.83
2022-09-14T17:06:33.929Z,6.78
2022-09-14T17:09:05.137Z,10.90
2022-09-14T17:11:35.431Z,6.57
2022-09-14T17:14:06.412Z,4.80
2022-09-14T17:16:35.333Z,8.30
2022-09-14T17:19:06.178Z,7.78
2022-09-14T17:21:37.361Z,5.50
2022-09-14T17:24:06.975Z,4.90
2022-09-14T17:26:36.532Z,3.17
2022-09-14T17:29:07.585Z,4.23
2022-09-14T17:31:38.507Z,6.43
2022-09-14T17:34:09.761Z,5.30
2022-09-14T17:36:39.495Z,9.63
2022-09-14T17:39:12.024Z,7.27
2022-09-14T17:41:42.980Z,4.40
2022-09-14T17:44:14.902Z,5.00
2022-09-14T17:46:51.980Z,5.37
2022-09-14T17:49:23.265Z,8.77
2022-09-14T17:51:52.483Z,5.80
2022-09-14T17:54:21.901Z,8.33
2022-09-14T17:56:50.942Z,6.67
2022-09-14T17:59:22.398Z,6.17
2022-09-14T18:01:51.523Z,11.10
2022-09-14T18:04:20.310Z,6.87
2022-09-14T18:06:50.477Z,8.67
2022-09-14T18:09:21.459Z,7.57
2022-09-14T18:11:51.148Z,7.67
2022-09-14T18:14:21.489Z,4.73
2022-09-14T18:16:50.222Z,5.17
2022-09-14T18:19:18.977Z,5.25
2022-09-14T18:21:52.151Z,4.77
2022-09-14T18:24:21.862Z,4.93
2022-09-14T18:26:50.860Z,5.97
2022-09-14T18:29:23.553Z,6.20
2022-09-14T18:31:52.848Z,12.27
2022-09-14T18:34:23.524Z,5.83
2022-09-14T18:36:53.189Z,6.83
2022-09-14T18:39:21.810Z,4.30
2022-09-14T18:41:53.685Z,6.47
2022-09-14T18:44:24.777Z,6.03
2022-09-14T18:46:53.727Z,6.33
2022-09-14T18:49:22.555Z,8.43
2022-09-14T18:51:51.215Z,14.37
2022-09-14T18:54:22.275Z,6.95
2022-09-14T18:56:58.243Z,5.88
2022-09-14T18:59:28.464Z,8.35
2022-09-14T19:01:57.019Z,6.97
2022-09-14T19:04:25.618Z,5.07
2022-09-14T19:06:54.082Z,5.32
2022-09-14T19:09:22.603Z,5.80
2022-09-14T19:11:51.068Z,7.83
2022-09-14T19:14:20.621Z,6.87
2022-09-14T19:16:51.680Z,6.82
2022-09-14T19:19:20.784Z,9.20
2022-09-14T19:21:49.510Z,6.33
2022-09-14T19:24:19.283Z,4.93
2022-09-14T19:26:50.624Z,6.17
2022-09-14T19:29:22.466Z,6.85
2022-09-14T19:31:54.778Z,9.23
2022-09-14T19:34:26.001Z,7.43
2022-09-14T19:36:55.235Z,9.10
2022-09-14T19:39:25.164Z,11.07
2022-09-14T19:41:54.240Z,14.17
2022-09-14T19:44:23.679Z,8.63
2022-09-14T19:46:54.266Z,10.93
2022-09-14T19:49:25.024Z,7.23
2022-09-14T19:51:54.744Z,10.03
2022-09-14T19:54:23.454Z,10.60
2022-09-14T19:56:52.068Z,7.00
2022-09-14T19:59:20.682Z,9.67
2022-09-14T20:01:49.558Z,7.72
2022-09-14T20:04:20.639Z,10.10
2022-09-14T20:06:49.684Z,6.70
2022-09-14T20:09:23.003Z,11.33
2022-09-14T20:11:53.757Z,6.87
2022-09-14T20:14:24.387Z,8.03
2022-09-14T20:16:55.005Z,6.70
2022-09-14T20:19:27.420Z,7.97
2022-09-14T20:21:56.494Z,8.67
2022-09-14T20:24:27.489Z,7.50
2022-09-14T20:26:58.946Z,7.20
2022-09-14T20:29:30.733Z,11.27
2022-09-14T20:32:00.437Z,7.67
2022-09-14T20:34:30.847Z,12.23
2022-09-14T20:37:00.847Z,8.10
2022-09-14T20:39:30.545Z,9.30
2022-09-14T20:41:59.051Z,6.63
2022-09-14T20:44:27.940Z,9.40
2022-09-14T20:46:56.665Z,9.30
2022-09-14T20:49:25.511Z,6.10
2022-09-14T20:51:57.384Z,7.97
2022-09-14T20:54:26.132Z,8.03
2022-09-14T20:56:54.864Z,6.85
2022-09-14T20:59:23.780Z,8.73
2022-09-14T21:01:53.937Z,11.33
2022-09-14T21:04:24.559Z,6.53
2022-09-14T21:06:57.536Z,7.87
2022-09-14T21:09:27.248Z,10.03
2022-09-14T21:11:56.164Z,8.10
2022-09-14T21:14:24.954Z,6.67
2022-09-14T21:16:56.871Z,18.27
2022-09-14T21:19:27.471Z,7.77
2022-09-14T21:21:58.025Z,5.60
2022-09-14T21:24:26.766Z,9.40
2022-09-14T21:26:57.069Z,6.23
2022-09-14T21:29:25.647Z,6.03
2022-09-14T21:31:54.279Z,8.53
2022-09-14T21:34:22.828Z,7.33
2022-09-14T21:36:52.760Z,11.13
2022-09-14T21:39:24.637Z,9.30
2022-09-14T21:41:58.844Z,9.83
2022-09-14T21:44:32.180Z,6.03
2022-09-14T21:47:01.158Z,8.87
2022-09-14T21:49:29.725Z,7.50
2022-09-14T21:51:58.247Z,12.03
2022-09-14T21:54:28.380Z,7.77
2022-09-14T21:56:56.917Z,8.03
2022-09-14T21:59:25.604Z,7.70
2022-09-14T22:01:54.403Z,8.87
2022-09-14T22:04:24.727Z,6.97
2022-09-14T22:06:53.815Z,7.83
2022-09-14T22:09:24.171Z,9.33
2022-09-14T22:11:54.396Z,7.73
2022-09-14T22:14:25.234Z,6.97
2022-09-14T22:16:54.099Z,10.93
2022-09-14T22:19:25.149Z,11.30
2022-09-14T22:21:53.755Z,8.43
2022-09-14T22:24:25.709Z,11.13
2022-09-14T22:26:57.281Z,7.23
2022-09-14T22:29:26.062Z,9.17
2022-09-14T22:31:54.712Z,7.93
2022-09-14T22:34:24.472Z,9.73
2022-09-14T22:36:53.069Z,7.33
2022-09-14T22:39:21.682Z,8.83
2022-09-14T22:41:50.679Z,9.27
2022-09-14T22:44:20.491Z,7.97
2022-09-14T22:46:48.913Z,10.73
2022-09-14T22:49:17.499Z,5.43
2022-09-14T22:51:45.935Z,7.73
2022-09-14T22:54:14.479Z,8.27
2022-09-14T22:56:43.168Z,14.07
2022-09-14T22:59:11.902Z,13.80
2022-09-14T23:01:43.305Z,7.57
2022-09-14T23:04:14.025Z,7.83
2022-09-14T23:06:44.784Z,9.07
2022-09-14T23:09:15.773Z,9.27
2022-09-14T23:11:45.308Z,11.40
2022-09-14T23:14:14.147Z,10.63
2022-09-14T23:16:45.933Z,9.17
2022-09-14T23:19:17.326Z,8.77
2022-09-14T23:21:46.735Z,9.87
2022-09-14T23:24:15.851Z,9.33
2022-09-14T23:26:44.906Z,9.00
2022-09-14T23:29:17.173Z,8.97
2022-09-14T23:31:47.560Z,15.90
2022-09-14T23:34:16.813Z,11.20
2022-09-14T23:36:45.739Z,11.60
2022-09-14T23:39:14.563Z,16.40
2022-09-14T23:41:43.317Z,9.33
2022-09-14T23:44:13.288Z,13.83
2022-09-14T23:46:42.439Z,9.33
2022-09-14T23:49:14.267Z,7.97
2022-09-14T23:51:43.700Z,11.73
2022-09-14T23:54:12.973Z,10.00
2022-09-14T23:56:42.116Z,10.43
2022-09-14T23:59:13.450Z,10.13
